createdAt,value
2019-06-20T00:02:39.747Z,0.70
2019-06-20T00:07:45.405Z,0.90
2019-06-20T00:12:59.864Z,1.03
2019-06-20T00:17:57.745Z,0.73
2019-06-20T00:23:03.014Z,0.90
2019-06-20T00:28:08.540Z,1.07
2019-06-20T00:33:14.396Z,1.40
2019-06-20T00:38:19.897Z,0.83
2019-06-20T00:43:25.339Z,1.40
2019-06-20T00:48:31.723Z,1.00
2019-06-20T00:53:37.217Z,1.30
2019-06-20T00:58:42.825Z,1.57
2019-06-20T01:03:47.995Z,1.30
2019-06-20T01:08:54.127Z,1.90
2019-06-20T01:14:00.181Z,1.87
2019-06-20T01:19:05.990Z,2.27
2019-06-20T01:24:11.062Z,2.00
2019-06-20T01:29:16.801Z,2.57
2019-06-20T01:34:22.227Z,3.30
2019-06-20T01:39:30.698Z,3.03
2019-06-20T01:44:35.876Z,3.80
2019-06-20T01:49:41.717Z,3.97
2019-06-20T01:54:47.199Z,4.80
2019-06-20T01:59:53.745Z,3.57
2019-06-20T02:04:59.463Z,4.57
2019-06-20T02:10:05.544Z,4.80
2019-06-20T02:15:12.218Z,5.57
2019-06-20T02:20:31.490Z,5.20
2019-06-20T02:25:36.671Z,6.63
2019-06-20T02:30:41.733Z,5.60
2019-06-20T02:35:49.415Z,4.63
2019-06-20T02:40:54.624Z,6.03
2019-06-20T02:46:00.115Z,5.00
2019-06-20T02:51:05.259Z,5.53
2019-06-20T02:56:10.709Z,8.07
2019-06-20T03:01:19.003Z,7.53
2019-06-20T03:06:24.840Z,6.30
2019-06-20T03:11:30.585Z,7.13
2019-06-20T03:16:37.737Z,10.03
2019-06-20T03:21:44.505Z,8.77
2019-06-20T03:26:51.075Z,7.83
2019-06-20T03:32:00.694Z,8.43
2019-06-20T03:37:11.329Z,8.10
2019-06-20T03:42:16.662Z,10.07
2019-06-20T03:47:21.959Z,7.07
2019-06-20T03:52:27.432Z,8.50
2019-06-20T03:57:33.379Z,10.10
2019-06-20T04:02:43.079Z,8.50
2019-06-20T04:07:51.229Z,7.40
2019-06-20T04:12:56.857Z,6.40
2019-06-20T04:18:02.443Z,5.90
2019-06-20T04:23:08.875Z,6.20
2019-06-20T04:28:14.696Z,6.47
2019-06-20T04:33:20.410Z,7.33
2019-06-20T04:38:25.715Z,6.07
2019-06-20T04:43:30.745Z,5.27
2019-06-20T04:48:38.207Z,5.43
2019-06-20T04:53:43.755Z,5.37
2019-06-20T04:58:49.063Z,5.20
2019-06-20T05:03:55.615Z,5.77
2019-06-20T05:09:03.783Z,4.67
2019-06-20T05:14:13.184Z,5.97
2019-06-20T05:19:20.583Z,4.83
2019-06-20T05:24:26.825Z,5.00
2019-06-20T05:29:32.041Z,5.17
2019-06-20T05:34:37.729Z,6.23
2019-06-20T05:39:45.307Z,7.57
2019-06-20T05:44:50.505Z,6.17
2019-06-20T05:49:56.072Z,6.20
2019-06-20T05:55:02.915Z,6.50
2019-06-20T06:00:10.812Z,5.77
2019-06-20T06:05:15.953Z,6.13
2019-06-20T06:10:21.333Z,5.50
2019-06-20T06:15:27.231Z,6.37
2019-06-20T06:20:32.658Z,7.57
2019-06-20T06:25:38.596Z,5.13
2019-06-20T06:30:43.918Z,6.10
2019-06-20T06:35:51.343Z,5.07
2019-06-20T06:40:57.592Z,6.77
2019-06-20T06:46:05.227Z,5.73
2019-06-20T06:51:10.326Z,5.27
2019-06-20T06:56:17.380Z,4.93
2019-06-20T07:01:22.669Z,4.40
2019-06-20T07:06:28.130Z,4.60
2019-06-20T07:11:34.084Z,3.77
2019-06-20T07:16:39.361Z,4.13
2019-06-20T07:21:44.392Z,4.33
2019-06-20T07:26:49.449Z,3.53
2019-06-20T07:31:54.506Z,4.07
2019-06-20T07:36:59.990Z,4.80
2019-06-20T07:42:05.791Z,3.37
2019-06-20T07:47:17.492Z,3.93
2019-06-20T07:52:18.471Z,3.73
2019-06-20T07:57:40.993Z,3.43
2019-06-20T08:02:49.429Z,3.53
2019-06-20T08:07:54.537Z,4.10
2019-06-20T08:12:59.596Z,3.23
2019-06-20T08:18:04.956Z,3.83
2019-06-20T08:23:10.005Z,3.07
2019-06-20T08:28:15.506Z,3.13
2019-06-20T08:33:21.210Z,3.30
2019-06-20T08:38:26.371Z,3.30
2019-06-20T08:43:31.971Z,3.53
2019-06-20T08:48:37.009Z,3.83
2019-06-20T08:53:42.477Z,3.63
2019-06-20T08:58:47.812Z,4.13
2019-06-20T09:03:55.153Z,3.37
2019-06-20T09:09:00.193Z,4.33
2019-06-20T09:14:05.708Z,3.67
2019-06-20T09:19:11.630Z,4.93
2019-06-20T09:24:16.903Z,3.80
2019-06-20T09:29:21.866Z,3.53
2019-06-20T09:34:29.810Z,2.80
2019-06-20T09:39:37.395Z,3.57
2019-06-20T09:44:42.654Z,3.27
2019-06-20T09:49:50.510Z,2.70
2019-06-20T09:54:56.129Z,3.37
2019-06-20T10:00:09.571Z,2.60
2019-06-20T10:05:10.791Z,2.70
2019-06-20T10:10:17.721Z,2.70
2019-06-20T10:15:25.590Z,2.90
2019-06-20T10:20:30.733Z,4.27
2019-06-20T10:25:36.227Z,3.70
2019-06-20T10:30:41.596Z,3.40
2019-06-20T10:35:47.284Z,3.47
2019-06-20T10:40:53.615Z,3.10
2019-06-20T10:45:58.935Z,4.23
2019-06-20T10:51:22.248Z,3.30
2019-06-20T10:56:27.999Z,3.40
2019-06-20T11:01:33.745Z,4.20
2019-06-20T11:06:40.107Z,2.80
2019-06-20T11:11:47.125Z,3.40
2019-06-20T11:16:52.513Z,3.47
2019-06-20T11:21:57.482Z,2.73
2019-06-20T11:27:02.929Z,3.57
2019-06-20T11:32:08.283Z,4.23
2019-06-20T11:37:13.125Z,3.60
2019-06-20T11:42:18.623Z,3.87
2019-06-20T11:47:24.071Z,4.30
2019-06-20T11:52:29.339Z,3.27
2019-06-20T11:57:34.304Z,2.90
2019-06-20T12:02:40.545Z,3.93
2019-06-20T12:07:47.628Z,4.17
2019-06-20T12:12:52.791Z,4.33
2019-06-20T12:17:58.091Z,4.50
2019-06-20T12:23:03.442Z,4.87
2019-06-20T12:28:08.747Z,5.60
2019-06-20T12:33:14.523Z,4.20
2019-06-20T12:38:19.808Z,4.13
2019-06-20T12:43:25.342Z,4.93
2019-06-20T12:48:31.063Z,5.20
2019-06-20T12:53:37.746Z,4.47
2019-06-20T12:58:44.510Z,2.93
2019-06-20T13:03:50.596Z,3.03
2019-06-20T13:08:55.888Z,2.30
2019-06-20T13:14:01.207Z,2.43
2019-06-20T13:19:06.177Z,1.83
2019-06-20T13:24:11.189Z,1.80
2019-06-20T13:29:16.686Z,2.23
2019-06-20T13:34:22.097Z,1.97
2019-06-20T13:39:28.908Z,2.03
2019-06-20T13:44:34.222Z,1.63
2019-06-20T13:49:40.260Z,1.20
2019-06-20T13:54:46.660Z,1.63
2019-06-20T13:59:54.526Z,1.33
2019-06-20T14:05:00.284Z,1.53
2019-06-20T14:10:05.941Z,1.37
2019-06-20T14:15:11.672Z,2.17
2019-06-20T14:20:17.021Z,1.60
2019-06-20T14:25:22.303Z,1.27
2019-06-20T14:30:27.880Z,1.27
2019-06-20T14:35:33.650Z,1.97
2019-06-20T14:40:38.743Z,1.90
2019-06-20T14:45:45.130Z,3.10
2019-06-20T14:50:51.363Z,2.00
2019-06-20T14:55:56.623Z,2.47
2019-06-20T15:01:01.864Z,3.60
2019-06-20T15:06:06.883Z,2.60
2019-06-20T15:11:12.575Z,2.47
2019-06-20T15:16:17.963Z,2.30
2019-06-20T15:21:23.271Z,2.47
2019-06-20T15:26:28.391Z,3.17
2019-06-20T15:31:33.437Z,2.50
2019-06-20T15:36:38.512Z,2.20
2019-06-20T15:41:43.826Z,2.80
2019-06-20T15:46:50.060Z,2.37
2019-06-20T15:51:58.934Z,2.80
2019-06-20T15:57:02.041Z,2.20
2019-06-20T16:02:07.094Z,2.53
2019-06-20T16:07:12.164Z,1.93
2019-06-20T16:12:17.772Z,1.57
2019-06-20T16:17:23.350Z,1.77
2019-06-20T16:22:28.806Z,1.37
2019-06-20T16:27:33.914Z,2.17
2019-06-20T16:32:39.004Z,1.77
2019-06-20T16:37:44.062Z,2.40
2019-06-20T16:42:50.079Z,1.83
2019-06-20T16:47:56.169Z,2.30
2019-06-20T16:53:01.702Z,2.60
2019-06-20T16:58:07.038Z,4.57
2019-06-20T17:03:12.373Z,3.33
2019-06-20T17:08:18.191Z,2.20
2019-06-20T17:13:23.663Z,2.00
2019-06-20T17:18:29.155Z,1.73
2019-06-20T17:23:34.772Z,1.63
2019-06-20T17:28:39.818Z,2.10
2019-06-20T17:33:57.197Z,1.60
2019-06-20T17:38:52.626Z,1.17
2019-06-20T17:43:57.725Z,1.53
2019-06-20T17:49:02.879Z,1.97
2019-06-20T17:54:08.239Z,2.83
2019-06-20T17:59:13.853Z,3.27
2019-06-20T18:04:19.271Z,2.77
2019-06-20T18:09:24.336Z,4.73
2019-06-20T18:14:29.619Z,4.03
2019-06-20T18:19:35.254Z,3.63
2019-06-20T18:24:40.259Z,3.60
2019-06-20T18:29:45.811Z,3.13
2019-06-20T18:35:01.585Z,4.20
2019-06-20T18:39:57.766Z,2.70
2019-06-20T18:45:02.992Z,3.40
2019-06-20T18:50:09.468Z,2.60
2019-06-20T18:55:14.816Z,2.43
2019-06-20T19:00:33.634Z,2.40
2019-06-20T19:05:27.770Z,2.63
2019-06-20T19:10:33.860Z,2.67
2019-06-20T19:15:39.019Z,2.77
2019-06-20T19:20:44.854Z,2.40
2019-06-20T19:25:50.201Z,2.70
2019-06-20T19:30:57.130Z,2.30
2019-06-20T19:36:02.307Z,2.87
2019-06-20T19:41:08.503Z,2.50
2019-06-20T19:46:14.362Z,2.60
2019-06-20T19:51:19.940Z,2.70
2019-06-20T19:56:25.578Z,2.85
2019-06-20T20:01:30.776Z,2.80
2019-06-20T20:06:37.498Z,2.40
2019-06-20T20:11:43.390Z,2.47
2019-06-20T20:16:49.552Z,2.87
2019-06-20T20:21:54.943Z,2.77
2019-06-20T20:27:01.202Z,2.53
2019-06-20T20:32:06.556Z,2.27
2019-06-20T20:37:12.531Z,2.57
2019-06-20T20:42:18.040Z,2.50
2019-06-20T20:47:23.784Z,2.10
2019-06-20T20:52:29.347Z,2.40
2019-06-20T20:57:34.561Z,2.67
2019-06-20T21:02:40.175Z,3.40
2019-06-20T21:07:45.832Z,2.30
2019-06-20T21:12:51.502Z,2.57
2019-06-20T21:17:56.562Z,2.53
2019-06-20T21:23:01.899Z,2.50
2019-06-20T21:28:07.275Z,2.70
2019-06-20T21:33:13.712Z,3.00
2019-06-20T21:38:19.055Z,2.43
2019-06-20T21:43:25.515Z,3.00
2019-06-20T21:48:30.964Z,2.80
2019-06-20T21:53:36.013Z,2.67
2019-06-20T21:58:41.603Z,3.10
2019-06-20T22:03:47.022Z,2.50
2019-06-20T22:08:52.620Z,5.50
2019-06-20T22:13:58.143Z,5.30
2019-06-20T22:19:03.643Z,4.17
2019-06-20T22:24:11.420Z,3.30
2019-06-20T22:29:16.952Z,3.23
2019-06-20T22:34:22.334Z,4.50
2019-06-20T22:39:27.623Z,4.87
2019-06-20T22:44:33.537Z,4.20
2019-06-20T22:49:38.691Z,3.47
2019-06-20T22:54:43.741Z,3.10
2019-06-20T22:59:49.479Z,3.43
2019-06-20T23:04:54.849Z,3.37
2019-06-20T23:10:09.939Z,2.93
2019-06-20T23:15:06.424Z,3.20
2019-06-20T23:20:12.345Z,2.17
2019-06-20T23:25:17.705Z,2.23
2019-06-20T23:30:23.088Z,1.87
2019-06-20T23:35:28.590Z,1.50
2019-06-20T23:40:34.446Z,1.77
2019-06-20T23:45:40.171Z,1.17
2019-06-20T23:50:45.244Z,1.53
2019-06-20T23:55:50.410Z,0.97
